createdAt,value
2023-04-21T00:00:40.159Z,9.65
2023-04-21T00:01:40.105Z,10.16
2023-04-21T00:03:40.422Z,9.56
2023-04-21T00:05:40.209Z,9.77
2023-04-21T00:08:40.170Z,9.60
2023-04-21T00:10:40.138Z,10.29
2023-04-21T00:11:40.155Z,10.33
2023-04-21T00:12:40.145Z,10.07
2023-04-21T00:14:40.160Z,9.48
2023-04-21T00:16:40.181Z,9.10
2023-04-21T00:17:40.179Z,9.71
2023-04-21T00:19:40.158Z,9.05
2023-04-21T00:20:40.165Z,9.78
2023-04-21T00:22:40.153Z,9.51
2023-04-21T00:24:40.215Z,11.24
2023-04-21T00:25:40.183Z,9.59
2023-04-21T00:26:40.236Z,10.27
2023-04-21T00:28:40.174Z,11.65
2023-04-21T00:29:40.187Z,11.80
2023-04-21T00:30:40.195Z,10.57
2023-04-21T00:31:40.268Z,10.84
2023-04-21T00:33:40.179Z,11.05
2023-04-21T00:34:40.214Z,10.84
2023-04-21T00:35:40.182Z,10.53
2023-04-21T00:36:40.188Z,10.58
2023-04-21T00:37:40.231Z,11.10
2023-04-21T00:39:40.243Z,11.21
2023-04-21T00:40:40.255Z,10.62
2023-04-21T00:41:40.197Z,10.85
2023-04-21T00:42:40.244Z,10.10
2023-04-21T00:43:40.188Z,11.11
2023-04-21T00:44:40.204Z,10.57
2023-04-21T00:45:40.254Z,10.99
2023-04-21T00:46:40.248Z,10.93
2023-04-21T00:47:40.268Z,11.26
2023-04-21T00:49:40.214Z,10.74
2023-04-21T00:50:40.245Z,11.00
2023-04-21T00:51:40.259Z,11.33
2023-04-21T00:52:40.220Z,10.13
2023-04-21T00:53:40.272Z,11.63
2023-04-21T00:55:40.292Z,11.50
2023-04-21T00:56:40.225Z,11.75
2023-04-21T00:57:40.248Z,11.68
2023-04-21T00:58:40.291Z,11.05
2023-04-21T00:59:40.264Z,10.12
2023-04-21T01:00:40.262Z,11.81
2023-04-21T01:01:40.287Z,10.40
2023-04-21T01:03:40.613Z,11.49
2023-04-21T01:04:40.283Z,11.82
2023-04-21T01:05:40.250Z,12.04
2023-04-21T01:06:40.297Z,11.71
2023-04-21T01:08:40.318Z,12.52
2023-04-21T01:09:40.286Z,11.05
2023-04-21T01:10:40.258Z,12.52
2023-04-21T01:11:40.337Z,11.15
2023-04-21T01:12:40.260Z,11.47
2023-04-21T01:14:40.322Z,12.18
2023-04-21T01:15:40.276Z,11.35
2023-04-21T01:16:40.423Z,12.66
2023-04-21T01:17:40.394Z,12.36
2023-04-21T01:18:40.309Z,12.32
2023-04-21T01:19:40.390Z,11.99
2023-04-21T01:20:40.286Z,11.52
2023-04-21T01:21:40.313Z,11.64
2023-04-21T01:22:40.296Z,12.31
2023-04-21T01:23:40.295Z,12.62
2023-04-21T01:24:40.350Z,11.91
2023-04-21T01:25:40.306Z,12.57
2023-04-21T01:26:40.305Z,11.89
2023-04-21T01:27:40.354Z,11.66
2023-04-21T01:28:40.337Z,12.69
2023-04-21T01:29:40.391Z,13.55
2023-04-21T01:30:40.337Z,11.68
2023-04-21T01:31:40.402Z,12.02
2023-04-21T01:33:40.351Z,13.20
2023-04-21T01:34:40.353Z,12.46
2023-04-21T01:37:40.393Z,13.50
2023-04-21T01:38:40.366Z,13.12
2023-04-21T01:39:40.363Z,12.91
2023-04-21T01:40:40.400Z,12.57
2023-04-21T01:41:40.348Z,13.59
2023-04-21T01:42:40.417Z,12.80
2023-04-21T01:43:40.378Z,13.61
2023-04-21T01:44:40.380Z,13.37
2023-04-21T01:45:40.417Z,13.27
2023-04-21T01:46:40.336Z,12.66
2023-04-21T01:47:40.454Z,12.40
2023-04-21T01:48:40.401Z,13.88
2023-04-21T01:49:40.385Z,13.47
2023-04-21T01:50:40.417Z,13.65
2023-04-21T01:51:40.360Z,12.72
2023-04-21T01:52:40.377Z,13.59
2023-04-21T01:54:40.400Z,12.98
2023-04-21T01:56:40.456Z,13.27
2023-04-21T01:59:40.386Z,14.30
2023-04-21T02:00:40.454Z,14.98
2023-04-21T02:01:40.449Z,15.30
2023-04-21T02:02:40.513Z,13.67
2023-04-21T02:03:40.712Z,13.84
2023-04-21T02:04:40.519Z,14.22
2023-04-21T02:05:40.422Z,14.02
2023-04-21T02:07:40.444Z,13.27
2023-04-21T02:08:40.471Z,13.89
2023-04-21T02:09:40.421Z,14.16
2023-04-21T02:10:40.427Z,14.01
2023-04-21T02:11:40.484Z,13.67
2023-04-21T02:12:40.422Z,13.96
2023-04-21T02:13:40.459Z,14.65
2023-04-21T02:15:40.482Z,15.22
2023-04-21T02:17:40.487Z,13.99
2023-04-21T02:18:40.431Z,14.53
2023-04-21T02:19:40.471Z,15.54
2023-04-21T02:20:40.472Z,15.07
2023-04-21T02:21:40.483Z,14.30
2023-04-21T02:22:40.558Z,15.03
2023-04-21T02:23:40.468Z,14.97
2023-04-21T02:24:40.499Z,14.66
2023-04-21T02:25:40.460Z,14.28
2023-04-21T02:26:40.447Z,14.24
2023-04-21T02:27:40.509Z,13.94
2023-04-21T02:28:40.482Z,15.17
2023-04-21T02:29:40.530Z,13.10
2023-04-21T02:30:42.524Z,13.05
2023-04-21T02:31:54.229Z,13.13
2023-04-21T02:32:40.561Z,12.48
2023-04-21T02:33:40.494Z,11.83
2023-04-21T02:34:40.498Z,12.72
2023-04-21T02:35:40.550Z,12.44
2023-04-21T02:36:40.498Z,12.17
2023-04-21T02:37:40.549Z,11.76
2023-04-21T02:39:40.531Z,11.35
2023-04-21T02:40:40.553Z,11.73
2023-04-21T02:41:40.507Z,12.16
2023-04-21T02:42:40.533Z,12.53
2023-04-21T02:44:40.525Z,11.63
2023-04-21T02:45:40.527Z,11.34
2023-04-21T02:46:40.554Z,11.79
2023-04-21T02:47:40.558Z,11.85
2023-04-21T02:48:40.542Z,12.01
2023-04-21T02:49:40.536Z,11.98
2023-04-21T02:50:40.561Z,12.46
2023-04-21T02:51:40.519Z,11.18
2023-04-21T02:52:40.554Z,11.40
2023-04-21T02:53:40.579Z,12.07
2023-04-21T02:54:40.578Z,12.15
2023-04-21T02:55:40.578Z,12.58
2023-04-21T02:56:40.585Z,11.68
2023-04-21T02:57:40.545Z,11.50
2023-04-21T02:58:40.566Z,11.48
2023-04-21T02:59:40.544Z,11.32
2023-04-21T03:00:40.654Z,11.43
2023-04-21T03:01:40.619Z,11.12
2023-04-21T03:02:40.642Z,11.36
2023-04-21T03:04:40.716Z,11.59
2023-04-21T03:05:40.585Z,10.97
2023-04-21T03:06:40.605Z,11.59
2023-04-21T03:07:40.572Z,10.55
2023-04-21T03:08:40.570Z,11.51
2023-04-21T03:10:40.551Z,12.00
2023-04-21T03:11:40.599Z,12.40
2023-04-21T03:12:40.551Z,11.45
2023-04-21T03:13:40.567Z,11.92
2023-04-21T03:14:40.602Z,11.75
2023-04-21T03:15:40.585Z,12.77
2023-04-21T03:16:40.655Z,12.28
2023-04-21T03:17:40.613Z,12.89
2023-04-21T03:18:40.581Z,11.71
2023-04-21T03:19:40.611Z,11.89
2023-04-21T03:20:40.575Z,13.40
2023-04-21T03:21:40.606Z,12.14
2023-04-21T03:22:40.725Z,13.07
2023-04-21T03:23:40.608Z,12.64
2023-04-21T03:24:40.606Z,12.96
2023-04-21T03:25:40.628Z,12.04
2023-04-21T03:26:40.642Z,11.58
2023-04-21T03:27:40.601Z,12.91
2023-04-21T03:28:40.634Z,12.17
2023-04-21T03:30:40.621Z,11.63
2023-04-21T03:31:40.651Z,12.13
2023-04-21T03:32:40.654Z,12.41
2023-04-21T03:33:40.627Z,11.99
2023-04-21T03:34:40.636Z,12.39
2023-04-21T03:36:40.599Z,12.86
2023-04-21T03:37:40.644Z,14.54
2023-04-21T03:39:40.622Z,13.25
2023-04-21T03:40:40.648Z,13.49
2023-04-21T03:41:40.608Z,13.28
2023-04-21T03:42:40.649Z,14.27
2023-04-21T03:43:40.665Z,13.00
2023-04-21T03:44:40.649Z,14.48
2023-04-21T03:45:40.761Z,13.04
2023-04-21T03:46:40.641Z,13.70
2023-04-21T03:49:40.655Z,12.60
2023-04-21T03:50:40.668Z,12.22
2023-04-21T03:51:40.712Z,13.08
2023-04-21T03:52:40.674Z,12.33
2023-04-21T03:53:40.759Z,13.72
2023-04-21T03:54:40.656Z,11.76
2023-04-21T03:55:40.790Z,10.85
2023-04-21T03:57:40.754Z,11.80
2023-04-21T03:58:40.711Z,12.38
2023-04-21T03:59:40.684Z,12.82
2023-04-21T04:00:40.668Z,13.08
2023-04-21T04:01:40.718Z,13.14
2023-04-21T04:02:40.813Z,11.83
2023-04-21T04:03:40.893Z,13.32
2023-04-21T04:04:41.015Z,11.95
2023-04-21T04:05:40.803Z,11.81
2023-04-21T04:06:40.746Z,12.17
2023-04-21T04:07:40.703Z,12.41
2023-04-21T04:08:40.755Z,12.54
2023-04-21T04:09:40.777Z,11.43
2023-04-21T04:11:40.772Z,11.83
2023-04-21T04:13:40.720Z,10.88
2023-04-21T04:14:40.770Z,10.89
2023-04-21T04:15:40.744Z,10.89
2023-04-21T04:16:40.774Z,10.19
2023-04-21T04:18:40.753Z,11.59
2023-04-21T04:19:40.760Z,11.40
2023-04-21T04:20:40.729Z,10.88
2023-04-21T04:21:40.733Z,11.24
2023-04-21T04:22:40.795Z,11.47
2023-04-21T04:25:40.772Z,10.02
2023-04-21T04:26:40.750Z,9.97
2023-04-21T04:27:40.772Z,11.17
2023-04-21T04:28:40.761Z,11.73
2023-04-21T04:29:40.788Z,11.25
2023-04-21T04:30:40.810Z,10.63
2023-04-21T04:31:40.787Z,10.43
2023-04-21T04:32:40.834Z,9.77
2023-04-21T04:33:40.767Z,11.61
2023-04-21T04:34:40.782Z,10.76
2023-04-21T04:35:40.759Z,10.72
2023-04-21T04:36:40.799Z,11.09
2023-04-21T04:37:40.826Z,11.18
2023-04-21T04:38:40.758Z,10.87
2023-04-21T04:42:40.823Z,10.57
2023-04-21T04:44:40.816Z,11.69
2023-04-21T04:46:40.849Z,12.36
2023-04-21T04:47:40.870Z,11.85
2023-04-21T04:48:40.846Z,11.46
2023-04-21T04:49:40.806Z,11.89
2023-04-21T04:50:40.825Z,11.28
2023-04-21T04:51:40.825Z,12.10
2023-04-21T04:53:40.858Z,12.67
2023-04-21T04:55:40.862Z,12.26
2023-04-21T04:56:40.847Z,11.69
2023-04-21T04:57:40.834Z,12.30
2023-04-21T04:58:40.866Z,11.50
2023-04-21T04:59:40.836Z,11.91
2023-04-21T05:00:40.824Z,12.06
2023-04-21T05:01:40.894Z,11.50
2023-04-21T05:02:41.010Z,11.36
2023-04-21T05:03:41.052Z,10.90
2023-04-21T05:04:40.905Z,10.53
2023-04-21T05:05:40.874Z,10.05
2023-04-21T05:06:40.868Z,11.66
2023-04-21T05:07:40.883Z,10.74
2023-04-21T05:08:40.912Z,9.85
2023-04-21T05:09:40.901Z,10.59
2023-04-21T05:10:40.857Z,10.92
2023-04-21T05:11:40.884Z,11.53
2023-04-21T05:12:40.861Z,11.32
2023-04-21T05:13:40.877Z,11.86
2023-04-21T05:14:40.922Z,11.40
2023-04-21T05:15:40.866Z,11.07
2023-04-21T05:16:40.969Z,10.82
2023-04-21T05:17:40.974Z,11.73
2023-04-21T05:18:40.881Z,10.57
2023-04-21T05:19:40.931Z,10.84
2023-04-21T05:20:40.857Z,10.22
2023-04-21T05:21:40.919Z,10.26
2023-04-21T05:22:40.922Z,9.50
2023-04-21T05:23:40.870Z,10.73
2023-04-21T05:24:40.934Z,9.94
2023-04-21T05:25:40.930Z,10.36
2023-04-21T05:26:40.902Z,12.03
2023-04-21T05:27:40.918Z,10.60
2023-04-21T05:28:40.903Z,11.17
2023-04-21T05:29:40.963Z,11.06
2023-04-21T05:30:40.956Z,11.26
2023-04-21T05:31:40.986Z,11.83
2023-04-21T05:33:40.908Z,14.07
2023-04-21T05:35:40.982Z,11.80
2023-04-21T05:36:40.949Z,10.99
2023-04-21T05:37:40.942Z,11.31
2023-04-21T05:38:40.934Z,11.01
2023-04-21T05:39:40.924Z,12.67
2023-04-21T05:40:40.985Z,12.81
2023-04-21T05:42:40.964Z,13.94
2023-04-21T05:43:40.990Z,14.02
2023-04-21T05:44:40.981Z,12.35
2023-04-21T05:45:41.081Z,12.21
2023-04-21T05:46:41.012Z,12.17
2023-04-21T05:47:40.965Z,12.81
2023-04-21T05:48:40.978Z,13.30
2023-04-21T05:49:40.971Z,12.46
2023-04-21T05:50:40.979Z,12.74
2023-04-21T05:51:40.940Z,12.86
2023-04-21T05:52:40.989Z,12.90
2023-04-21T05:53:40.994Z,13.49
2023-04-21T05:54:40.982Z,12.54
2023-04-21T05:55:41.002Z,12.65
2023-04-21T05:56:41.032Z,12.01
2023-04-21T05:57:40.986Z,12.67
2023-04-21T05:58:41.005Z,12.82
2023-04-21T05:59:40.970Z,13.52
2023-04-21T06:00:40.984Z,15.04
2023-04-21T06:02:41.185Z,14.55
2023-04-21T06:03:41.186Z,13.73
2023-04-21T06:04:41.205Z,13.43
2023-04-21T06:05:41.026Z,13.75
2023-04-21T06:06:41.045Z,13.40
2023-04-21T06:07:40.985Z,13.61
2023-04-21T06:08:40.983Z,13.72
2023-04-21T06:09:41.024Z,14.40
2023-04-21T06:10:41.018Z,12.39
2023-04-21T06:11:41.024Z,12.92
2023-04-21T06:12:41.000Z,14.97
2023-04-21T06:13:43.013Z,15.32
2023-04-21T06:14:41.038Z,13.34
2023-04-21T06:15:41.039Z,15.02
2023-04-21T06:16:41.123Z,12.41
2023-04-21T06:17:41.096Z,12.15
2023-04-21T06:18:41.022Z,12.67
2023-04-21T06:19:41.936Z,11.82
2023-04-21T06:20:41.018Z,12.74
2023-04-21T06:21:41.049Z,13.48
2023-04-21T06:22:41.076Z,12.84
2023-04-21T06:23:41.021Z,12.79
2023-04-21T06:25:41.066Z,12.86
2023-04-21T06:26:41.092Z,13.18
2023-04-21T06:27:41.096Z,13.84
2023-04-21T06:28:41.065Z,13.11
2023-04-21T06:29:41.044Z,11.96
2023-04-21T06:30:41.102Z,13.87
2023-04-21T06:31:41.133Z,14.62
2023-04-21T06:32:41.095Z,13.67
2023-04-21T06:33:41.023Z,14.12
2023-04-21T06:34:41.052Z,13.26
2023-04-21T06:35:41.084Z,13.00
2023-04-21T06:36:41.077Z,13.16
2023-04-21T06:37:41.124Z,13.45
2023-04-21T06:38:41.072Z,12.83
2023-04-21T06:39:41.108Z,13.39
2023-04-21T06:40:41.116Z,14.05
2023-04-21T06:41:41.094Z,14.98
2023-04-21T06:42:41.079Z,14.72
2023-04-21T06:43:41.117Z,14.81
2023-04-21T06:44:41.078Z,15.80
2023-04-21T06:45:41.130Z,15.28
2023-04-21T06:46:41.214Z,16.35
2023-04-21T06:47:41.096Z,14.23
2023-04-21T06:48:41.098Z,16.05
2023-04-21T06:49:41.097Z,15.35
2023-04-21T06:50:41.121Z,14.69
2023-04-21T06:51:41.142Z,16.09
2023-04-21T06:52:41.095Z,15.80
2023-04-21T06:53:41.155Z,15.27
2023-04-21T06:54:41.136Z,14.49
2023-04-21T06:55:41.119Z,14.98
2023-04-21T06:56:41.150Z,14.81
2023-04-21T06:57:41.109Z,13.80
2023-04-21T06:59:41.127Z,14.78
2023-04-21T07:00:41.206Z,15.59
2023-04-21T07:01:41.209Z,14.89
2023-04-21T07:02:41.254Z,14.44
2023-04-21T07:03:41.382Z,13.97
2023-04-21T07:04:41.268Z,13.51
2023-04-21T07:05:41.132Z,14.52
2023-04-21T07:06:41.167Z,15.59
2023-04-21T07:07:41.163Z,15.51
2023-04-21T07:08:41.163Z,15.01
2023-04-21T07:09:41.194Z,16.14
2023-04-21T07:10:41.150Z,15.01
2023-04-21T07:11:41.177Z,15.48
2023-04-21T07:12:41.181Z,16.24
2023-04-21T07:13:41.139Z,14.58
2023-04-21T07:14:41.212Z,16.57
2023-04-21T07:15:41.175Z,16.45
2023-04-21T07:16:41.246Z,14.97
2023-04-21T07:17:41.277Z,15.77
2023-04-21T07:18:41.172Z,15.05
2023-04-21T07:19:41.269Z,16.33
2023-04-21T07:20:41.165Z,14.61
2023-04-21T07:22:41.240Z,15.25
2023-04-21T07:23:41.173Z,15.03
2023-04-21T07:24:41.236Z,15.94
2023-04-21T07:26:41.202Z,15.77
2023-04-21T07:27:41.223Z,16.59
2023-04-21T07:28:41.182Z,16.59
2023-04-21T07:29:41.204Z,17.20
2023-04-21T07:30:41.272Z,15.86
2023-04-21T07:31:41.269Z,16.69
2023-04-21T07:32:41.248Z,15.37
2023-04-21T07:33:41.189Z,14.44
2023-04-21T07:34:41.223Z,15.48
2023-04-21T07:35:41.237Z,16.02
2023-04-21T07:36:41.196Z,15.26
2023-04-21T07:38:41.233Z,14.87
2023-04-21T07:39:41.244Z,15.12
2023-04-21T07:40:41.276Z,16.98
2023-04-21T07:41:41.223Z,16.62
2023-04-21T07:42:41.217Z,16.08
2023-04-21T07:43:41.247Z,17.00
2023-04-21T07:44:41.315Z,16.65
2023-04-21T07:45:41.258Z,17.99
2023-04-21T07:46:41.402Z,18.55
2023-04-21T07:47:41.308Z,17.69
2023-04-21T07:52:41.266Z,17.99
2023-04-21T07:53:41.311Z,18.60
2023-04-21T07:54:41.234Z,20.03
2023-04-21T07:55:41.309Z,20.09
2023-04-21T07:56:41.331Z,19.24
2023-04-21T07:57:41.265Z,17.47
2023-04-21T07:58:41.285Z,20.25
2023-04-21T07:59:41.275Z,18.74
2023-04-21T08:00:41.255Z,18.81
2023-04-21T08:01:41.287Z,18.38
2023-04-21T08:02:41.500Z,17.56
2023-04-21T08:03:41.474Z,17.05
2023-04-21T08:04:41.390Z,17.37
2023-04-21T08:05:41.958Z,16.67
2023-04-21T08:06:41.319Z,18.71
2023-04-21T08:07:41.308Z,17.36
2023-04-21T08:08:41.348Z,18.45
2023-04-21T08:09:41.334Z,18.02
2023-04-21T08:10:41.316Z,17.23
2023-04-21T08:11:41.321Z,18.25
2023-04-21T08:12:41.299Z,18.74
2023-04-21T08:13:41.426Z,17.35
2023-04-21T08:14:41.341Z,17.59
2023-04-21T08:15:41.315Z,16.86
2023-04-21T08:16:41.358Z,17.40
2023-04-21T08:17:41.347Z,18.10
2023-04-21T08:18:41.310Z,18.31
2023-04-21T08:19:41.338Z,17.63
2023-04-21T08:20:41.313Z,17.08
2023-04-21T08:21:41.373Z,18.76
2023-04-21T08:22:41.385Z,19.69
2023-04-21T08:23:41.330Z,20.04
2023-04-21T08:24:41.346Z,17.01
2023-04-21T08:25:41.324Z,18.15
2023-04-21T08:26:41.317Z,18.55
2023-04-21T08:27:41.354Z,17.94
2023-04-21T08:28:41.383Z,18.76
2023-04-21T08:29:41.339Z,17.70
2023-04-21T08:30:41.323Z,18.51
2023-04-21T08:31:41.370Z,18.06
2023-04-21T08:32:41.424Z,17.82
2023-04-21T08:33:49.910Z,18.85
2023-04-21T08:34:41.382Z,18.53
2023-04-21T08:35:51.083Z,16.80
2023-04-21T08:36:41.362Z,18.42
2023-04-21T08:37:41.382Z,17.64
2023-04-21T08:38:41.370Z,17.56
2023-04-21T08:39:41.357Z,16.98
2023-04-21T08:40:41.421Z,17.03
2023-04-21T08:41:41.361Z,17.32
2023-04-21T08:42:41.428Z,17.40
2023-04-21T08:43:41.398Z,16.86
2023-04-21T08:44:41.369Z,18.34
2023-04-21T08:45:41.459Z,18.71
2023-04-21T08:46:41.389Z,16.61
2023-04-21T08:47:41.445Z,14.80
2023-04-21T08:48:41.427Z,14.60
2023-04-21T08:49:41.398Z,15.34
2023-04-21T08:50:41.477Z,13.82
2023-04-21T08:51:41.386Z,12.93
2023-04-21T08:52:41.409Z,13.10
2023-04-21T08:53:41.426Z,13.48
2023-04-21T08:54:41.426Z,13.19
2023-04-21T08:55:41.445Z,12.78
2023-04-21T08:56:41.468Z,12.04
2023-04-21T08:57:41.380Z,13.42
2023-04-21T08:58:41.441Z,12.57
2023-04-21T08:59:41.423Z,13.56
2023-04-21T09:00:41.419Z,14.39
2023-04-21T09:01:41.498Z,13.01
2023-04-21T09:02:41.463Z,13.25
2023-04-21T09:03:41.672Z,13.68
2023-04-21T09:04:41.676Z,14.77
2023-04-21T09:05:43.201Z,12.89
2023-04-21T09:06:41.603Z,13.46
2023-04-21T09:07:41.505Z,13.96
2023-04-21T09:08:41.483Z,13.01
2023-04-21T09:09:41.488Z,13.32
2023-04-21T09:10:41.461Z,11.84
2023-04-21T09:11:41.492Z,12.47
2023-04-21T09:12:41.431Z,12.41
2023-04-21T09:13:41.436Z,13.50
2023-04-21T09:14:41.475Z,13.49
2023-04-21T09:15:41.461Z,13.71
2023-04-21T09:16:41.571Z,13.63
2023-04-21T09:17:41.526Z,14.32
2023-04-21T09:18:41.468Z,13.34
2023-04-21T09:19:41.514Z,13.92
2023-04-21T09:20:41.452Z,12.41
2023-04-21T09:21:41.469Z,14.66
2023-04-21T09:22:41.510Z,13.69
2023-04-21T09:23:41.491Z,15.00
2023-04-21T09:24:41.492Z,14.92
2023-04-21T09:25:41.461Z,15.28
2023-04-21T09:26:41.474Z,15.15
2023-04-21T09:27:41.501Z,15.02
2023-04-21T09:28:41.483Z,15.13
2023-04-21T09:29:41.491Z,14.84
2023-04-21T09:30:41.524Z,15.76
2023-04-21T09:31:41.719Z,14.78
2023-04-21T09:32:41.564Z,15.02
2023-04-21T09:33:54.250Z,16.27
2023-04-21T09:34:41.518Z,16.31
2023-04-21T09:35:41.554Z,15.57
2023-04-21T09:36:41.492Z,15.65
2023-04-21T09:37:41.534Z,14.32
2023-04-21T09:38:41.510Z,16.02
2023-04-21T09:39:52.704Z,16.10
2023-04-21T09:40:41.541Z,13.93
2023-04-21T09:41:41.511Z,14.35
2023-04-21T09:42:43.248Z,13.05
2023-04-21T09:43:41.556Z,13.03
2023-04-21T09:44:52.537Z,11.73
2023-04-21T09:45:41.582Z,12.67
2023-04-21T09:46:41.637Z,12.27
2023-04-21T09:47:41.548Z,11.50
2023-04-21T09:48:41.600Z,12.02
2023-04-21T09:49:41.541Z,12.19
2023-04-21T09:51:22.062Z,11.98
2023-04-21T09:51:56.322Z,12.83
2023-04-21T09:52:41.551Z,11.33
2023-04-21T09:53:41.597Z,12.03
2023-04-21T09:54:41.564Z,11.79
2023-04-21T09:55:41.573Z,12.23
2023-04-21T09:56:41.602Z,10.70
2023-04-21T09:57:41.570Z,11.20
2023-04-21T09:58:41.623Z,10.36
2023-04-21T09:59:41.586Z,10.90
2023-04-21T10:00:41.573Z,10.87
2023-04-21T10:01:41.593Z,11.00
2023-04-21T10:02:41.740Z,10.98
2023-04-21T10:03:41.734Z,10.65
2023-04-21T10:04:41.877Z,11.02
2023-04-21T10:05:42.986Z,10.93
2023-04-21T10:06:41.632Z,11.22
2023-04-21T10:08:41.589Z,11.78
2023-04-21T10:09:41.647Z,10.50
2023-04-21T10:10:41.604Z,10.26
2023-04-21T10:11:41.616Z,10.79
2023-04-21T10:12:41.649Z,11.85
2023-04-21T10:13:41.625Z,12.38
2023-04-21T10:14:41.653Z,12.08
2023-04-21T10:15:41.650Z,11.04
2023-04-21T10:16:41.692Z,10.91
2023-04-21T10:17:41.693Z,12.86
2023-04-21T10:18:41.601Z,11.47
2023-04-21T10:19:41.691Z,10.28
2023-04-21T10:20:41.629Z,9.89
2023-04-21T10:21:41.612Z,10.14
2023-04-21T10:22:41.668Z,10.46
2023-04-21T10:23:41.617Z,9.57
2023-04-21T10:24:41.653Z,9.59
2023-04-21T10:25:41.624Z,10.57
2023-04-21T10:26:41.653Z,9.50
2023-04-21T10:27:41.631Z,9.40
2023-04-21T10:28:41.650Z,10.56
2023-04-21T10:30:41.654Z,10.06
2023-04-21T10:31:41.664Z,9.67
2023-04-21T10:32:41.972Z,9.89
2023-04-21T10:33:41.657Z,9.73
2023-04-21T10:34:41.658Z,9.82
2023-04-21T10:35:41.693Z,9.75
2023-04-21T10:36:41.651Z,10.12
2023-04-21T10:37:41.654Z,10.26
2023-04-21T10:38:41.706Z,10.78
2023-04-21T10:39:41.665Z,11.06
2023-04-21T10:40:44.182Z,10.39
2023-04-21T10:41:41.690Z,10.71
2023-04-21T10:42:41.672Z,10.38
2023-04-21T10:43:41.697Z,10.40
2023-04-21T10:44:41.671Z,9.60
2023-04-21T10:45:41.700Z,9.87
2023-04-21T10:46:41.752Z,9.67
2023-04-21T10:47:41.703Z,9.34
2023-04-21T10:48:41.724Z,9.34
2023-04-21T10:49:41.696Z,9.43
2023-04-21T10:50:41.724Z,9.47
2023-04-21T10:51:41.741Z,9.60
2023-04-21T10:52:41.705Z,9.37
2023-04-21T10:53:41.741Z,9.31
2023-04-21T10:54:41.727Z,9.82
2023-04-21T10:55:41.685Z,10.36
2023-04-21T10:56:41.739Z,9.18
2023-04-21T10:57:41.710Z,9.38
2023-04-21T10:58:41.730Z,9.67
2023-04-21T10:59:41.746Z,9.44
2023-04-21T11:00:41.750Z,8.63
2023-04-21T11:01:41.786Z,9.24
2023-04-21T11:02:44.112Z,8.88
2023-04-21T11:03:41.939Z,9.29
2023-04-21T11:04:42.115Z,9.04
2023-04-21T11:05:41.739Z,9.15
2023-04-21T11:06:41.770Z,9.14
2023-04-21T11:07:41.719Z,9.49
2023-04-21T11:08:41.730Z,9.56
2023-04-21T11:09:41.787Z,9.17
2023-04-21T11:10:41.738Z,9.47
2023-04-21T11:11:41.778Z,9.41
2023-04-21T11:12:41.786Z,9.48
2023-04-21T11:13:41.735Z,9.73
2023-04-21T11:14:41.807Z,9.87
2023-04-21T11:15:41.749Z,10.01
2023-04-21T11:16:41.829Z,9.45
2023-04-21T11:17:41.848Z,8.93
2023-04-21T11:18:41.766Z,9.28
2023-04-21T11:19:41.801Z,9.32
2023-04-21T11:20:41.756Z,8.65
2023-04-21T11:21:41.779Z,8.95
2023-04-21T11:22:41.799Z,8.86
2023-04-21T11:23:41.775Z,8.40
2023-04-21T11:24:41.799Z,8.77
2023-04-21T11:25:41.802Z,8.01
2023-04-21T11:26:41.772Z,10.07
2023-04-21T11:27:41.802Z,9.40
2023-04-21T11:28:41.828Z,9.26
2023-04-21T11:29:41.824Z,9.30
2023-04-21T11:30:41.883Z,9.40
2023-04-21T11:31:41.796Z,8.66
2023-04-21T11:32:41.879Z,9.22
2023-04-21T11:33:41.815Z,10.25
2023-04-21T11:34:41.802Z,9.30
2023-04-21T11:35:41.826Z,9.64
2023-04-21T11:36:41.788Z,7.92
2023-04-21T11:38:41.849Z,9.19
2023-04-21T11:39:41.823Z,8.07
2023-04-21T11:40:41.871Z,8.14
2023-04-21T11:42:41.840Z,8.04
2023-04-21T11:44:41.900Z,8.18
2023-04-21T11:47:41.889Z,8.03
2023-04-21T11:49:41.854Z,7.41
2023-04-21T11:50:41.860Z,8.46
2023-04-21T11:51:41.870Z,9.10
2023-04-21T11:52:41.864Z,8.83
2023-04-21T11:53:41.911Z,8.54
2023-04-21T11:54:41.888Z,9.82
2023-04-21T11:55:41.886Z,9.36
2023-04-21T11:56:41.926Z,9.28
2023-04-21T11:57:41.880Z,9.67
2023-04-21T11:58:41.896Z,9.16
2023-04-21T11:59:41.936Z,8.38
2023-04-21T12:01:41.924Z,8.96
2023-04-21T12:02:41.960Z,10.20
2023-04-21T12:03:42.073Z,9.95
2023-04-21T12:04:42.045Z,8.69
2023-04-21T12:05:41.916Z,8.86
2023-04-21T12:06:41.941Z,9.59
2023-04-21T12:07:41.919Z,9.83
2023-04-21T12:08:41.886Z,12.14
2023-04-21T12:09:41.912Z,11.33
2023-04-21T12:10:41.906Z,10.14
2023-04-21T12:12:41.975Z,9.25
2023-04-21T12:13:41.920Z,10.04
2023-04-21T12:15:41.899Z,8.84
2023-04-21T12:16:41.968Z,9.06
2023-04-21T12:17:41.979Z,9.59
2023-04-21T12:18:41.909Z,8.99
2023-04-21T12:19:41.989Z,8.56
2023-04-21T12:20:41.951Z,11.02
2023-04-21T12:21:41.931Z,11.34
2023-04-21T12:22:41.970Z,11.15
2023-04-21T12:23:41.935Z,12.29
2023-04-21T12:24:41.950Z,12.16
2023-04-21T12:25:41.969Z,12.01
2023-04-21T12:26:41.922Z,11.82
2023-04-21T12:27:41.993Z,12.40
2023-04-21T12:28:41.971Z,11.43
2023-04-21T12:29:41.942Z,10.36
2023-04-21T12:30:42.632Z,11.31
2023-04-21T12:31:41.997Z,10.29
2023-04-21T12:32:42.038Z,11.01
2023-04-21T12:33:42.024Z,11.00
2023-04-21T12:34:41.975Z,11.51
2023-04-21T12:35:41.996Z,10.59
2023-04-21T12:36:41.982Z,10.00
2023-04-21T12:37:41.994Z,10.39
2023-04-21T12:38:42.017Z,9.80
2023-04-21T12:39:41.981Z,9.88
2023-04-21T12:40:42.035Z,9.15
2023-04-21T12:41:41.968Z,10.15
2023-04-21T12:42:41.987Z,10.13
2023-04-21T12:43:42.019Z,9.18
2023-04-21T12:44:41.999Z,10.01
2023-04-21T12:45:42.045Z,11.13
2023-04-21T12:46:42.011Z,10.35
2023-04-21T12:47:43.499Z,11.53
2023-04-21T12:48:42.036Z,10.79
2023-04-21T12:49:41.987Z,10.60
2023-04-21T12:50:42.053Z,9.82
2023-04-21T12:51:42.077Z,10.76
2023-04-21T12:52:41.994Z,11.24
2023-04-21T12:53:42.067Z,10.74
2023-04-21T12:55:49.686Z,11.24
2023-04-21T12:56:42.041Z,11.65
2023-04-21T12:57:42.052Z,11.29
2023-04-21T12:58:42.039Z,11.04
2023-04-21T12:59:43.093Z,11.03
2023-04-21T13:00:42.085Z,10.84
2023-04-21T13:01:42.156Z,10.62
2023-04-21T13:03:42.232Z,11.35
2023-04-21T13:04:42.149Z,12.81
2023-04-21T13:05:42.918Z,11.40
2023-04-21T13:06:42.150Z,9.56
2023-04-21T13:07:42.068Z,10.19
2023-04-21T13:08:42.087Z,10.48
2023-04-21T13:09:42.041Z,10.99
2023-04-21T13:10:42.071Z,9.95
2023-04-21T13:11:42.085Z,10.38
2023-04-21T13:12:42.049Z,10.99
2023-04-21T13:13:42.072Z,10.57
2023-04-21T13:14:42.108Z,10.57
2023-04-21T13:15:42.053Z,11.31
2023-04-21T13:16:42.184Z,11.77
2023-04-21T13:17:42.059Z,11.93
2023-04-21T13:18:42.064Z,11.15
2023-04-21T13:19:42.151Z,11.33
2023-04-21T13:20:42.072Z,10.71
2023-04-21T13:21:42.127Z,11.77
2023-04-21T13:22:42.106Z,11.00
2023-04-21T13:23:42.121Z,11.31
2023-04-21T13:24:42.107Z,10.81
2023-04-21T13:25:42.081Z,11.30
2023-04-21T13:26:42.114Z,10.35
2023-04-21T13:27:42.116Z,10.83
2023-04-21T13:28:42.075Z,10.34
2023-04-21T13:29:42.112Z,11.68
2023-04-21T13:30:42.160Z,11.33
2023-04-21T13:32:42.251Z,12.49
2023-04-21T13:34:42.157Z,10.98
2023-04-21T13:35:42.117Z,11.18
2023-04-21T13:36:42.120Z,11.01
2023-04-21T13:37:42.165Z,10.94
2023-04-21T13:38:42.143Z,11.79
2023-04-21T13:39:42.159Z,10.23
2023-04-21T13:40:42.149Z,10.04
2023-04-21T13:41:42.147Z,11.03
2023-04-21T13:42:42.180Z,10.99
2023-04-21T13:43:42.147Z,10.63
2023-04-21T13:44:42.120Z,10.83
2023-04-21T13:45:42.131Z,10.43
2023-04-21T13:46:42.199Z,9.91
2023-04-21T13:47:42.284Z,9.69
2023-04-21T13:50:42.211Z,10.17
2023-04-21T13:51:42.206Z,10.02
2023-04-21T13:52:42.178Z,10.39
2023-04-21T13:53:42.182Z,9.48
2023-04-21T13:54:42.184Z,9.66
2023-04-21T13:55:42.183Z,10.90
2023-04-21T13:56:42.171Z,9.85
2023-04-21T13:57:42.167Z,9.95
2023-04-21T13:58:42.186Z,10.01
2023-04-21T13:59:42.167Z,10.55
2023-04-21T14:00:42.210Z,10.44
2023-04-21T14:01:42.233Z,10.56
2023-04-21T14:02:42.458Z,10.36
2023-04-21T14:03:42.413Z,10.19
2023-04-21T14:04:42.475Z,9.99
2023-04-21T14:05:42.460Z,10.30
2023-04-21T14:06:42.265Z,9.92
2023-04-21T14:07:42.182Z,10.56
2023-04-21T14:08:42.215Z,9.83
2023-04-21T14:09:42.224Z,10.69
2023-04-21T14:10:42.232Z,9.88
2023-04-21T14:12:42.209Z,10.00
2023-04-21T14:13:52.240Z,9.93
2023-04-21T14:14:42.249Z,10.06
2023-04-21T14:15:42.274Z,9.58
2023-04-21T14:16:42.284Z,10.21
2023-04-21T14:17:42.272Z,9.71